Time;durP1;ratioP1;P1;durP2;ratioP2;P2;SDS_P1;SDS_P2;PMS_P1;PMS_P2;Temp;Humidity;BMP_temperature;BMP_pressure;BME280_temperature;BME280_humidity;BME280_pressure;Samples;Min_cycle;Max_cycle;Signal;HPM_P1;HPM_P2
2021/06/21 00:01:12;;;;;;;4.40;1.65;;;19.80;74.90;;;;;;5093876;28;20036;-62
2021/06/21 00:03:37;;;;;;;4.13;1.85;;;19.70;74.90;;;;;;5075667;28;20390;-62
2021/06/21 00:06:03;;;;;;;2.97;1.40;;;19.70;75.10;;;;;;5076534;28;20041;-62
2021/06/21 00:08:29;;;;;;;5.40;1.58;;;19.70;74.90;;;;;;5092044;28;20021;-62
2021/06/21 00:10:55;;;;;;;3.55;1.23;;;19.70;74.70;;;;;;5092172;28;20032;-62
2021/06/21 00:13:21;;;;;;;2.90;1.45;;;19.60;74.60;;;;;;5093936;28;20020;-62
2021/06/21 00:15:47;;;;;;;3.58;1.50;;;19.60;74.70;;;;;;5089706;28;20544;-62
2021/06/21 00:18:14;;;;;;;5.43;1.30;;;19.60;74.50;;;;;;5082353;28;20579;-62
2021/06/21 00:20:40;;;;;;;4.03;1.75;;;19.60;74.30;;;;;;5092639;28;20082;-62
2021/06/21 00:23:06;;;;;;;3.53;1.80;;;19.60;74.40;;;;;;5085854;28;20028;-62
2021/06/21 00:25:32;;;;;;;4.63;1.67;;;19.50;74.20;;;;;;5079736;28;20035;-62
2021/06/21 00:27:58;;;;;;;4.05;1.48;;;19.50;74.40;;;;;;5094595;28;20047;-62
2021/06/21 00:30:24;;;;;;;6.32;1.70;;;19.50;74.10;;;;;;5072802;28;20028;-62
2021/06/21 00:32:51;;;;;;;9.00;1.98;;;19.40;74.30;;;;;;5093925;28;20495;-62
2021/06/21 00:35:18;;;;;;;2.80;1.70;;;19.50;74.60;;;;;;5093736;28;20082;-62
2021/06/21 00:37:47;;;;;;;2.95;1.63;;;19.40;74.80;;;;;;5092088;28;20028;-62
2021/06/21 00:40:14;;;;;;;4.28;1.73;;;19.40;75.00;;;;;;5094132;28;20073;-62
2021/06/21 00:42:46;;;;;;;3.88;1.67;;;19.40;75.90;;;;;;5092466;28;20043;-62
2021/06/21 00:45:13;;;;;;;3.40;1.42;;;19.40;76.10;;;;;;5085785;28;20028;-62
2021/06/21 00:47:39;;;;;;;5.85;1.80;;;19.30;75.80;;;;;;5074056;28;20044;-62
2021/06/21 00:50:05;;;;;;;4.82;1.75;;;19.30;75.70;;;;;;5092190;28;20024;-62
2021/06/21 00:52:31;;;;;;;2.85;1.50;;;19.30;75.50;;;;;;5093916;28;20028;-62
2021/06/21 00:55:00;;;;;;;4.90;1.50;;;19.20;75.50;;;;;;5091908;28;20102;-62
2021/06/21 00:57:34;;;;;;;2.35;1.33;;;19.30;75.50;;;;;;5092532;28;20040;-62
2021/06/21 01:00:08;;;;;;;3.83;1.20;;;19.20;75.70;;;;;;5091654;28;20031;-62
2021/06/21 01:02:34;;;;;;;2.15;1.30;;;19.20;75.70;;;;;;5093765;28;20115;-62
2021/06/21 01:05:01;;;;;;;3.15;1.42;;;19.20;75.70;;;;;;5092082;28;20051;-62
2021/06/21 01:07:27;;;;;;;4.93;1.50;;;19.20;76.00;;;;;;5090579;28;20028;-62
2021/06/21 01:09:55;;;;;;;2.83;1.30;;;19.20;76.20;;;;;;5092329;28;20034;-62
2021/06/21 01:12:40;;;;;;;1.27;1.13;;;19.20;76.10;;;;;;5091701;28;20034;-62
2021/06/21 01:15:09;;;;;;;6.50;1.63;;;19.10;76.20;;;;;;5086419;28;20024;-62
2021/06/21 01:17:59;;;;;;;3.60;1.50;;;19.10;76.00;;;;;;5090882;28;20792;-62
2021/06/21 01:20:40;;;;;;;2.20;1.30;;;19.10;76.40;;;;;;5069883;28;20434;-62
2021/06/21 01:23:11;;;;;;;6.32;1.60;;;19.10;76.90;;;;;;5086460;28;20059;-62
2021/06/21 01:25:51;;;;;;;3.65;1.80;;;19.10;76.70;;;;;;5087922;28;20556;-62
2021/06/21 01:28:56;;;;;;;6.18;1.90;;;19.10;76.80;;;;;;5093084;28;20500;-62
2021/06/21 01:31:28;;;;;;;6.35;1.90;;;19.00;76.90;;;;;;5079116;28;20028;-62
2021/06/21 01:33:55;;;;;;;7.60;1.80;;;19.00;77.40;;;;;;5091128;28;20040;-62
2021/06/21 01:36:24;;;;;;;4.47;1.90;;;19.00;77.60;;;;;;5092723;28;20093;-62
2021/06/21 01:38:54;;;;;;;6.70;2.40;;;19.00;77.80;;;;;;5091774;28;20063;-62
2021/06/21 01:41:32;;;;;;;12.60;2.10;;;19.00;77.90;;;;;;5089105;28;20467;-62
2021/06/21 01:44:01;;;;;;;12.38;2.25;;;18.90;78.00;;;;;;5087044;28;20024;-62
2021/06/21 01:46:31;;;;;;;8.02;2.28;;;18.90;78.30;;;;;;5084881;28;20028;-62
2021/06/21 01:49:01;;;;;;;8.80;1.92;;;18.90;78.40;;;;;;5092073;28;20076;-62
2021/06/21 01:51:30;;;;;;;9.85;2.90;;;18.90;78.60;;;;;;5079533;28;20085;-64
2021/06/21 01:53:59;;;;;;;5.07;1.80;;;18.90;78.30;;;;;;5091842;28;20035;-62
2021/06/21 01:56:28;;;;;;;7.80;2.40;;;18.90;78.10;;;;;;5071991;28;20066;-62
2021/06/21 01:58:56;;;;;;;6.18;2.42;;;18.90;78.60;;;;;;5083160;28;20024;-62
2021/06/21 02:01:22;;;;;;;6.18;1.98;;;18.90;78.60;;;;;;5088004;28;20421;-62
2021/06/21 02:03:51;;;;;;;6.00;2.17;;;18.90;78.40;;;;;;5084390;28;20166;-62
2021/06/21 02:06:18;;;;;;;4.85;2.45;;;18.90;78.40;;;;;;5086348;28;20024;-62
2021/06/21 02:08:46;;;;;;;7.40;2.65;;;18.90;78.30;;;;;;5076938;28;20072;-62
2021/06/21 02:11:13;;;;;;;8.73;2.38;;;18.80;78.40;;;;;;5080965;28;20028;-62
2021/06/21 02:13:43;;;;;;;8.52;2.03;;;18.80;78.40;;;;;;5088495;28;20364;-63
2021/06/21 02:16:10;;;;;;;6.32;2.08;;;18.90;78.20;;;;;;5088130;28;20528;-62
2021/06/21 02:18:40;;;;;;;6.20;2.03;;;18.80;78.00;;;;;;5090931;28;20103;-62
2021/06/21 02:21:06;;;;;;;4.65;2.00;;;18.80;78.00;;;;;;5091011;28;20028;-62
2021/06/21 02:23:32;;;;;;;8.18;2.28;;;18.80;77.70;;;;;;5078821;28;20487;-62
2021/06/21 02:25:59;;;;;;;5.03;1.70;;;18.80;77.80;;;;;;5081247;28;20024;-62
2021/06/21 02:28:27;;;;;;;7.57;2.00;;;18.80;77.90;;;;;;5090296;28;20032;-62
2021/06/21 02:30:55;;;;;;;10.98;1.98;;;18.80;77.70;;;;;;5091105;28;20071;-62
2021/06/21 02:33:21;;;;;;;4.55;1.92;;;18.80;77.70;;;;;;5091986;28;20036;-62
2021/06/21 02:35:47;;;;;;;7.47;1.60;;;18.80;77.90;;;;;;5095093;28;20040;-62
2021/06/21 02:38:14;;;;;;;7.63;1.67;;;18.80;77.70;;;;;;5095883;28;20028;-62
2021/06/21 02:40:40;;;;;;;4.15;1.95;;;18.80;78.20;;;;;;5095905;28;20036;-62
2021/06/21 02:43:06;;;;;;;2.92;1.80;;;18.80;78.20;;;;;;5095156;28;20025;-62
2021/06/21 02:45:33;;;;;;;6.00;2.10;;;18.80;78.20;;;;;;5093771;28;20035;-62
2021/06/21 02:48:02;;;;;;;4.03;1.80;;;18.70;78.10;;;;;;5092511;28;20384;-62
2021/06/21 02:50:28;;;;;;;5.85;1.90;;;18.80;78.10;;;;;;5086270;28;20028;-62
2021/06/21 02:52:54;;;;;;;9.23;1.80;;;18.70;78.20;;;;;;5091643;28;20085;-62
2021/06/21 02:55:25;;;;;;;4.60;1.80;;;18.70;78.30;;;;;;5090142;28;20461;-62
2021/06/21 02:58:43;;;;;;;5.88;1.70;;;18.70;78.00;;;;;;5093877;28;20043;-62
2021/06/21 03:01:11;;;;;;;3.92;1.48;;;18.70;78.50;;;;;;5078973;28;20399;-62
2021/06/21 03:03:45;;;;;;;7.03;1.83;;;18.70;78.60;;;;;;5094400;28;20119;-62
2021/06/21 03:06:12;;;;;;;11.23;2.78;;;18.70;78.60;;;;;;5095964;28;20036;-62
2021/06/21 03:08:39;;;;;;;4.97;1.92;;;18.60;78.80;;;;;;5095876;28;20020;-62
2021/06/21 03:11:07;;;;;;;6.63;1.60;;;18.60;79.00;;;;;;5092170;28;20376;-62
2021/06/21 03:13:35;;;;;;;5.43;2.03;;;18.60;79.20;;;;;;5095567;28;20032;-62
2021/06/21 03:16:02;;;;;;;5.60;2.33;;;18.60;79.30;;;;;;5093372;28;20036;-62
2021/06/21 03:18:27;;;;;;;5.70;2.15;;;18.50;79.30;;;;;;5066568;28;20032;-62
2021/06/21 03:20:55;;;;;;;6.15;1.60;;;18.60;79.50;;;;;;5094274;28;20028;-62
2021/06/21 03:23:22;;;;;;;5.43;1.85;;;18.50;79.40;;;;;;5094093;28;20024;-62
2021/06/21 03:25:52;;;;;;;3.45;1.50;;;18.50;79.50;;;;;;5084936;28;20031;-62
2021/06/21 03:28:17;;;;;;;3.55;1.58;;;18.50;79.80;;;;;;5086738;28;20028;-62
2021/06/21 03:30:53;;;;;;;3.30;1.73;;;18.50;80.00;;;;;;5093911;28;20073;-62
2021/06/21 03:33:20;;;;;;;3.20;1.83;;;18.50;79.80;;;;;;5084646;28;20471;-62
2021/06/21 03:35:46;;;;;;;5.30;2.00;;;18.50;79.90;;;;;;5094222;28;20043;-61
2021/06/21 03:38:19;;;;;;;7.63;1.90;;;18.50;79.80;;;;;;5093189;28;20023;-60
2021/06/21 03:40:46;;;;;;;4.45;1.95;;;18.50;80.20;;;;;;5094649;28;20036;-61
2021/06/21 03:43:13;;;;;;;4.85;1.55;;;18.40;80.40;;;;;;5093212;28;20063;-61
2021/06/21 03:45:39;;;;;;;3.25;1.70;;;18.40;80.40;;;;;;5093048;28;20476;-61
2021/06/21 03:48:08;;;;;;;4.72;2.20;;;18.40;80.50;;;;;;5091995;28;20564;-61
2021/06/21 03:50:34;;;;;;;5.43;2.00;;;18.40;80.80;;;;;;5094353;28;20028;-62
2021/06/21 03:53:00;;;;;;;6.65;2.22;;;18.40;80.90;;;;;;5093266;28;20035;-62
2021/06/21 03:55:26;;;;;;;5.57;1.80;;;18.40;81.00;;;;;;5087919;28;20095;-62
2021/06/21 03:57:54;;;;;;;5.97;2.22;;;18.30;80.80;;;;;;5080325;28;20043;-62
2021/06/21 04:00:23;;;;;;;6.93;2.35;;;18.30;81.10;;;;;;5093092;28;20024;-62
2021/06/21 04:02:49;;;;;;;8.13;2.30;;;18.30;81.20;;;;;;5093411;28;20036;-62
2021/06/21 04:05:16;;;;;;;10.35;2.47;;;18.30;81.30;;;;;;5093011;28;20435;-62
2021/06/21 04:07:43;;;;;;;12.30;3.08;;;18.30;82.00;;;;;;5092806;28;20028;-62
2021/06/21 04:10:11;;;;;;;13.23;2.67;;;18.30;81.70;;;;;;5094058;28;20058;-62
2021/06/21 04:12:37;;;;;;;7.60;3.03;;;18.30;81.70;;;;;;5092468;28;20031;-63
2021/06/21 04:15:08;;;;;;;7.28;3.22;;;18.30;81.80;;;;;;5092092;28;20028;-63
2021/06/21 04:17:36;;;;;;;6.70;2.60;;;18.20;81.70;;;;;;5093323;28;20471;-63
2021/06/21 04:20:10;;;;;;;2.65;1.77;;;18.20;81.90;;;;;;5085338;28;20495;-62
2021/06/21 04:22:37;;;;;;;4.25;2.17;;;18.20;82.00;;;;;;5090295;28;20379;-62
2021/06/21 04:25:03;;;;;;;5.90;2.47;;;18.20;82.20;;;;;;5086994;28;20024;-62
2021/06/21 04:27:29;;;;;;;5.65;2.40;;;18.20;82.80;;;;;;5092851;28;20084;-62
2021/06/21 04:29:55;;;;;;;5.22;1.90;;;18.10;82.30;;;;;;5076473;28;20028;-62
2021/06/21 04:32:21;;;;;;;5.40;2.28;;;18.10;82.40;;;;;;5093411;28;20028;-63
2021/06/21 04:34:46;;;;;;;6.13;2.05;;;18.10;82.40;;;;;;5088892;28;20177;-62
2021/06/21 04:37:12;;;;;;;6.70;2.13;;;18.10;82.50;;;;;;5093296;28;20058;-62
2021/06/21 04:39:37;;;;;;;3.80;2.13;;;18.10;82.50;;;;;;5092125;28;20123;-62
2021/06/21 04:42:04;;;;;;;5.18;2.50;;;18.10;82.60;;;;;;5092918;28;20028;-62
2021/06/21 04:44:29;;;;;;;3.88;2.30;;;18.10;82.50;;;;;;5091492;28;20406;-62
2021/06/21 04:46:55;;;;;;;9.50;2.40;;;18.10;82.60;;;;;;5093020;28;20032;-62
2021/06/21 04:49:21;;;;;;;6.68;2.15;;;18.10;82.70;;;;;;5089936;28;20042;-62
2021/06/21 04:51:47;;;;;;;7.25;2.33;;;18.10;82.60;;;;;;5083665;28;20120;-62
2021/06/21 04:54:13;;;;;;;4.13;2.08;;;18.10;82.70;;;;;;5092225;28;20114;-62
2021/06/21 04:56:40;;;;;;;12.75;2.47;;;18.10;82.70;;;;;;5084997;28;20025;-63
2021/06/21 04:59:05;;;;;;;5.97;2.65;;;18.00;82.80;;;;;;5085707;28;20051;-62
2021/06/21 05:01:32;;;;;;;6.68;2.70;;;18.00;82.80;;;;;;5085502;28;20063;-63
2021/06/21 05:04:04;;;;;;;10.98;2.80;;;18.00;83.00;;;;;;5090583;28;20467;-62
2021/06/21 05:06:32;;;;;;;7.00;2.50;;;17.90;83.00;;;;;;5093967;28;20028;-62
2021/06/21 05:08:57;;;;;;;8.30;2.20;;;17.90;83.10;;;;;;5091155;28;20028;-62
2021/06/21 05:11:23;;;;;;;10.73;2.22;;;18.00;83.10;;;;;;5091106;28;20043;-62
2021/06/21 05:13:49;;;;;;;10.18;2.50;;;18.00;83.30;;;;;;5090403;28;20074;-62
2021/06/21 05:16:16;;;;;;;9.60;2.70;;;17.90;83.50;;;;;;5093213;28;20161;-62
2021/06/21 05:18:42;;;;;;;6.90;2.80;;;17.90;83.60;;;;;;5092139;28;20101;-62
2021/06/21 05:21:07;;;;;;;9.52;2.40;;;17.90;83.70;;;;;;5093280;28;20028;-66
2021/06/21 05:23:33;;;;;;;7.07;2.58;;;17.90;83.80;;;;;;5092205;28;20028;-64
2021/06/21 05:25:59;;;;;;;9.77;2.53;;;17.80;83.90;;;;;;5092481;28;20024;-64
2021/06/21 05:28:25;;;;;;;9.52;2.72;;;17.80;84.10;;;;;;5093022;28;20453;-62
2021/06/21 05:30:50;;;;;;;9.20;2.15;;;17.80;84.20;;;;;;5091081;28;20509;-61
2021/06/21 05:33:16;;;;;;;6.75;2.50;;;17.70;84.30;;;;;;5092291;28;20024;-61
2021/06/21 05:35:42;;;;;;;11.63;2.20;;;17.70;84.40;;;;;;5092131;28;20088;-61
2021/06/21 05:38:08;;;;;;;13.20;2.65;;;17.70;84.50;;;;;;5091867;28;20028;-61
2021/06/21 05:40:35;;;;;;;11.25;2.70;;;17.70;84.50;;;;;;5091888;28;20036;-61
2021/06/21 05:43:01;;;;;;;7.45;2.50;;;17.70;84.50;;;;;;5091897;28;20032;-61
2021/06/21 05:45:27;;;;;;;12.82;3.10;;;17.70;84.60;;;;;;5091815;28;20024;-61
2021/06/21 05:47:53;;;;;;;10.48;2.63;;;17.70;84.60;;;;;;5073927;28;20505;-63
2021/06/21 05:50:19;;;;;;;9.98;2.53;;;17.70;84.60;;;;;;5083435;28;20518;-63
2021/06/21 05:52:49;;;;;;;12.45;2.38;;;17.70;84.60;;;;;;5087905;28;20016;-61
2021/06/21 05:55:18;;;;;;;9.35;2.20;;;17.70;84.60;;;;;;5082808;28;20475;-61
2021/06/21 05:57:43;;;;;;;5.07;2.30;;;17.70;84.60;;;;;;5091058;28;20043;-61
2021/06/21 06:00:09;;;;;;;8.15;2.33;;;17.60;84.80;;;;;;5091445;28;20070;-62
2021/06/21 06:02:35;;;;;;;6.32;1.83;;;17.60;84.90;;;;;;5091660;28;20467;-63
2021/06/21 06:05:02;;;;;;;8.10;1.80;;;17.60;85.00;;;;;;5090594;28;20028;-64
2021/06/21 06:07:27;;;;;;;6.55;2.45;;;17.60;85.00;;;;;;5091045;28;20055;-63
2021/06/21 06:09:53;;;;;;;13.85;2.83;;;17.50;85.00;;;;;;5091887;28;20450;-62
2021/06/21 06:12:19;;;;;;;8.85;2.33;;;17.60;85.10;;;;;;5091161;28;20036;-62
2021/06/21 06:14:44;;;;;;;7.88;2.55;;;17.60;85.20;;;;;;5089259;28;20422;-62
2021/06/21 06:17:10;;;;;;;9.38;2.65;;;17.60;85.10;;;;;;5088239;28;20126;-61
2021/06/21 06:19:36;;;;;;;5.07;2.20;;;17.50;85.10;;;;;;5088249;28;20107;-62
2021/06/21 06:22:02;;;;;;;12.30;2.50;;;17.50;85.40;;;;;;5086256;28;20547;-62
2021/06/21 06:24:27;;;;;;;5.38;2.38;;;17.50;85.10;;;;;;5089231;28;20020;-62
2021/06/21 06:26:53;;;;;;;7.25;2.20;;;17.50;85.20;;;;;;5089341;28;20028;-62
2021/06/21 06:29:19;;;;;;;9.25;2.38;;;17.50;85.30;;;;;;5088864;28;20387;-62
2021/06/21 06:31:48;;;;;;;7.55;1.95;;;17.50;85.20;;;;;;5089197;28;20036;-62
2021/06/21 06:34:15;;;;;;;7.90;2.50;;;17.50;85.20;;;;;;5087872;28;20474;-62
2021/06/21 06:36:41;;;;;;;5.03;1.80;;;17.40;85.20;;;;;;5089880;28;20032;-62
2021/06/21 06:39:07;;;;;;;10.07;3.40;;;17.50;85.40;;;;;;5090119;28;20020;-63
2021/06/21 06:41:35;;;;;;;7.68;3.08;;;17.40;85.60;;;;;;5083865;28;20087;-62
2021/06/21 06:44:00;;;;;;;5.88;2.13;;;17.40;86.20;;;;;;5085794;28;20530;-60
2021/06/21 06:46:27;;;;;;;10.20;2.40;;;17.40;85.70;;;;;;5089023;28;20107;-60
2021/06/21 06:48:52;;;;;;;10.77;2.42;;;17.40;85.60;;;;;;5089468;28;20264;-60
2021/06/21 06:51:19;;;;;;;6.07;2.03;;;17.40;85.60;;;;;;5088341;28;20016;-60
2021/06/21 06:53:50;;;;;;;5.57;2.10;;;17.30;85.60;;;;;;5090036;28;20380;-60
2021/06/21 06:59:00;;;;;;;4.40;2.35;;;17.40;85.50;;;;;;5085026;28;20032;-60
2021/06/21 07:01:26;;;;;;;9.32;2.40;;;17.40;85.50;;;;;;5088137;28;20039;-60
2021/06/21 07:03:52;;;;;;;10.20;2.40;;;17.30;85.50;;;;;;5091463;28;20024;-60
2021/06/21 07:06:18;;;;;;;6.00;1.90;;;17.30;85.50;;;;;;5090020;28;20032;-60
2021/06/21 07:08:45;;;;;;;9.75;2.20;;;17.30;85.50;;;;;;5090712;28;20020;-60
2021/06/21 07:11:12;;;;;;;12.52;2.47;;;17.30;85.40;;;;;;5090628;28;20032;-60
2021/06/21 07:13:38;;;;;;;9.15;2.03;;;17.40;85.40;;;;;;5091006;28;20032;-60
2021/06/21 07:16:04;;;;;;;7.57;2.00;;;17.30;85.40;;;;;;5091223;28;20548;-60
2021/06/21 07:18:30;;;;;;;10.82;2.25;;;17.30;85.40;;;;;;5089185;28;20463;-60
2021/06/21 07:20:55;;;;;;;11.27;2.38;;;17.30;85.40;;;;;;5091526;28;20158;-60
2021/06/21 07:23:21;;;;;;;4.30;1.90;;;17.30;85.50;;;;;;5093241;28;20036;-60
2021/06/21 07:25:47;;;;;;;6.15;2.00;;;17.30;85.70;;;;;;5093871;28;20028;-60
2021/06/21 07:28:16;;;;;;;6.07;1.73;;;17.30;85.70;;;;;;5094410;28;20486;-60
2021/06/21 07:30:45;;;;;;;5.82;2.13;;;17.30;85.80;;;;;;5092542;28;20073;-60
2021/06/21 07:33:11;;;;;;;7.88;1.70;;;17.20;85.70;;;;;;5095433;28;20025;-60
2021/06/21 07:35:40;;;;;;;4.25;1.75;;;17.30;85.60;;;;;;5094558;28;20437;-60
2021/06/21 07:38:12;;;;;;;6.55;1.65;;;17.30;85.70;;;;;;5093983;28;20074;-60
2021/06/21 07:40:39;;;;;;;6.03;1.92;;;17.20;85.80;;;;;;5094399;28;20109;-60
2021/06/21 07:43:05;;;;;;;8.88;1.90;;;17.20;85.90;;;;;;5092052;28;20028;-60
2021/06/21 07:45:31;;;;;;;6.93;1.90;;;17.30;85.90;;;;;;5094005;28;20035;-60
2021/06/21 07:48:00;;;;;;;9.45;2.20;;;17.30;85.90;;;;;;5091627;28;20055;-60
2021/06/21 07:50:28;;;;;;;6.82;2.10;;;17.20;85.80;;;;;;5084925;28;20055;-60
2021/06/21 07:52:55;;;;;;;7.20;2.00;;;17.30;85.90;;;;;;5091291;28;20465;-60
2021/06/21 07:55:27;;;;;;;9.15;2.47;;;17.30;85.70;;;;;;5091721;28;20085;-60
2021/06/21 07:57:53;;;;;;;12.93;3.05;;;17.30;85.70;;;;;;5092895;28;20039;-60
2021/06/21 08:00:22;;;;;;;7.97;2.13;;;17.20;85.70;;;;;;5083978;28;20063;-60
2021/06/21 08:02:48;;;;;;;6.43;2.00;;;17.30;85.80;;;;;;5083561;28;20035;-60
2021/06/21 08:05:16;;;;;;;8.45;2.80;;;17.30;85.90;;;;;;5092255;28;20032;-60
2021/06/21 08:07:45;;;;;;;5.45;2.00;;;17.20;85.80;;;;;;5077079;28;20028;-60
2021/06/21 08:10:13;;;;;;;19.20;2.90;;;17.20;85.90;;;;;;5087874;28;20024;-60
2021/06/21 08:12:39;;;;;;;8.30;2.22;;;17.20;86.00;;;;;;5091990;28;20038;-60
2021/06/21 08:15:12;;;;;;;11.52;2.70;;;17.20;86.00;;;;;;5092977;28;20073;-60
2021/06/21 08:17:38;;;;;;;6.55;1.90;;;17.20;86.00;;;;;;5083116;28;20469;-60
2021/06/21 08:20:07;;;;;;;5.07;1.65;;;17.20;85.90;;;;;;5079446;28;20028;-60
2021/06/21 08:22:32;;;;;;;5.57;1.90;;;17.20;86.00;;;;;;5092435;28;20036;-59
2021/06/21 08:24:59;;;;;;;4.72;1.58;;;17.30;86.10;;;;;;5094209;28;20035;-60
2021/06/21 08:27:25;;;;;;;6.68;1.27;;;17.20;86.00;;;;;;5088575;28;20032;-60
2021/06/21 08:29:52;;;;;;;5.95;1.52;;;17.20;86.30;;;;;;5091574;28;20116;-60
2021/06/21 08:32:18;;;;;;;6.05;1.73;;;17.20;86.40;;;;;;5063442;28;20562;-60
2021/06/21 08:34:43;;;;;;;9.35;2.00;;;17.20;86.50;;;;;;5092621;28;20114;-60
2021/06/21 08:37:09;;;;;;;4.32;1.50;;;17.20;86.50;;;;;;5091929;28;20387;-60
2021/06/21 08:39:37;;;;;;;8.85;1.63;;;17.20;86.30;;;;;;5093042;28;20020;-61
2021/06/21 08:42:05;;;;;;;10.63;1.98;;;17.20;86.30;;;;;;5092658;28;20032;-60
2021/06/21 08:44:34;;;;;;;6.63;1.70;;;17.20;86.70;;;;;;5074390;28;20487;-60
2021/06/21 08:47:01;;;;;;;4.40;1.60;;;17.10;86.50;;;;;;5091850;28;20544;-60
2021/06/21 08:49:28;;;;;;;5.78;1.58;;;17.20;86.90;;;;;;5092538;28;20036;-60
2021/06/21 08:51:53;;;;;;;4.15;1.48;;;17.10;86.70;;;;;;5075997;28;20043;-60
2021/06/21 08:54:19;;;;;;;8.38;1.50;;;17.20;86.80;;;;;;5092586;28;20028;-60
2021/06/21 08:56:45;;;;;;;6.13;1.80;;;17.10;86.90;;;;;;5091414;28;20158;-60
2021/06/21 08:59:11;;;;;;;3.92;1.50;;;17.10;86.60;;;;;;5091236;28;20020;-60
2021/06/21 09:01:40;;;;;;;7.43;1.63;;;17.10;86.70;;;;;;5091591;28;20032;-60
2021/06/21 09:04:11;;;;;;;5.20;1.60;;;17.10;86.70;;;;;;5079160;28;20024;-60
2021/06/21 09:06:40;;;;;;;4.15;1.60;;;17.10;86.50;;;;;;5093346;28;20028;-60
2021/06/21 09:09:06;;;;;;;7.00;1.50;;;17.10;86.30;;;;;;5092535;28;20444;-60
2021/06/21 09:11:49;;;;;;;4.30;1.42;;;17.10;86.40;;;;;;5091437;28;20042;-60
2021/06/21 09:14:29;;;;;;;4.85;1.38;;;17.10;86.70;;;;;;5079184;28;20039;-60
2021/06/21 09:16:56;;;;;;;2.50;1.17;;;17.10;86.80;;;;;;5089069;28;20032;-60
2021/06/21 09:19:23;;;;;;;4.28;1.55;;;17.00;86.90;;;;;;5092917;28;20027;-64
2021/06/21 09:21:50;;;;;;;6.32;1.50;;;17.00;87.00;;;;;;5080541;28;20036;-60
2021/06/21 09:24:22;;;;;;;3.30;1.60;;;17.00;87.20;;;;;;5087443;28;20078;-60
2021/06/21 09:26:56;;;;;;;4.20;1.40;;;17.00;87.20;;;;;;5087156;28;20111;-61
2021/06/21 09:29:52;;;;;;;2.05;1.27;;;17.00;87.20;;;;;;5090397;28;20023;-63
2021/06/21 09:32:19;;;;;;;4.53;1.50;;;17.00;87.40;;;;;;5074370;28;20043;-60
2021/06/21 09:34:45;;;;;;;7.18;1.80;;;17.00;87.30;;;;;;5092282;28;20146;-59
2021/06/21 09:37:18;;;;;;;5.88;1.50;;;17.00;87.20;;;;;;5091546;28;20519;-60
2021/06/21 09:39:49;;;;;;;4.85;1.30;;;17.00;87.30;;;;;;5089282;28;20406;-60
2021/06/21 09:42:23;;;;;;;4.35;1.33;;;17.00;87.40;;;;;;5088052;28;20061;-60
2021/06/21 09:45:00;;;;;;;6.05;1.70;;;17.00;87.40;;;;;;5090500;28;20028;-59
2021/06/21 09:47:37;;;;;;;3.03;1.40;;;17.00;87.40;;;;;;5090660;28;20035;-60
2021/06/21 09:50:11;;;;;;;5.80;1.45;;;17.00;87.20;;;;;;5090387;28;20044;-59
2021/06/21 09:52:41;;;;;;;5.38;1.50;;;17.00;87.10;;;;;;5091038;28;20032;-59
2021/06/21 09:55:22;;;;;;;8.35;2.03;;;17.00;87.20;;;;;;5090828;28;20031;-59
2021/06/21 09:58:00;;;;;;;8.43;1.75;;;17.00;87.10;;;;;;5088710;28;20036;-60
2021/06/21 10:00:26;;;;;;;7.40;1.60;;;17.00;87.10;;;;;;5087507;28;20032;-61
2021/06/21 10:03:06;;;;;;;6.28;1.63;;;17.00;87.10;;;;;;5089678;28;20097;-59
2021/06/21 10:05:32;;;;;;;4.82;1.60;;;17.00;87.10;;;;;;5088299;28;20043;-59
2021/06/21 10:07:58;;;;;;;6.55;1.60;;;17.00;87.00;;;;;;5089709;28;20020;-59
2021/06/21 10:10:24;;;;;;;7.40;1.83;;;17.00;87.00;;;;;;5089618;28;20040;-59
2021/06/21 10:12:50;;;;;;;4.22;1.27;;;17.00;87.10;;;;;;5088981;28;20032;-67
2021/06/21 10:15:16;;;;;;;2.83;1.38;;;17.00;87.00;;;;;;5090185;28;20028;-61
2021/06/21 10:17:42;;;;;;;7.60;1.83;;;17.00;87.60;;;;;;5088616;28;20043;-60
2021/06/21 10:20:09;;;;;;;8.05;1.77;;;17.00;87.20;;;;;;5088803;28;20024;-60
2021/06/21 10:22:37;;;;;;;7.45;1.95;;;17.00;87.20;;;;;;5089449;28;20030;-60
2021/06/21 10:25:05;;;;;;;7.53;1.77;;;17.00;87.10;;;;;;5090005;28;20227;-60
2021/06/21 10:27:30;;;;;;;7.57;1.60;;;17.00;87.00;;;;;;5088738;28;20035;-60
2021/06/21 10:29:57;;;;;;;5.90;1.75;;;17.00;87.00;;;;;;5090144;28;20033;-60
2021/06/21 10:32:26;;;;;;;7.63;1.70;;;17.00;87.10;;;;;;5088307;28;20055;-60
2021/06/21 10:34:52;;;;;;;6.45;1.38;;;17.00;87.30;;;;;;5089073;28;20038;-60
2021/06/21 10:37:23;;;;;;;7.95;2.03;;;17.00;87.30;;;;;;5090679;28;20032;-59
2021/06/21 10:40:14;;;;;;;8.82;1.83;;;16.90;87.20;;;;;;5088456;28;20036;-60
2021/06/21 10:42:43;;;;;;;6.47;1.30;;;17.00;87.20;;;;;;5062297;28;20078;-60
2021/06/21 10:45:17;;;;;;;8.57;2.20;;;16.90;87.40;;;;;;5088055;28;20382;-60
2021/06/21 10:47:46;;;;;;;5.35;2.17;;;17.00;88.30;;;;;;5087608;28;20445;-60
2021/06/21 10:50:19;;;;;;;5.10;1.45;;;17.00;87.80;;;;;;5090338;28;20043;-62
2021/06/21 10:52:51;;;;;;;4.87;1.47;;;17.00;88.00;;;;;;5090074;28;20050;-62
2021/06/21 10:57:53;;;;;;;12.18;1.83;;;16.90;87.80;;;;;;5090266;28;20102;-61
2021/06/21 11:00:33;;;;;;;6.63;1.90;;;16.90;87.90;;;;;;5087465;28;20052;-61
2021/06/21 11:03:00;;;;;;;9.10;1.70;;;16.90;88.10;;;;;;5090581;28;20114;-61
2021/06/21 11:05:40;;;;;;;4.60;1.38;;;16.90;88.10;;;;;;5094363;28;20528;-61
2021/06/21 11:08:20;;;;;;;3.30;1.30;;;16.90;88.20;;;;;;5095164;28;20055;-62
2021/06/21 11:10:57;;;;;;;2.63;1.50;;;16.90;88.10;;;;;;5095114;28;20511;-62
2021/06/21 11:13:32;;;;;;;9.43;2.15;;;16.90;88.00;;;;;;5095818;28;20028;-60
2021/06/21 11:16:20;;;;;;;12.00;1.90;;;16.90;88.10;;;;;;5088618;28;20067;-62
2021/06/21 11:18:56;;;;;;;5.63;1.63;;;16.90;88.10;;;;;;5093981;28;20027;-61
2021/06/21 11:21:23;;;;;;;2.80;1.50;;;16.90;88.10;;;;;;5094712;28;20142;-61
2021/06/21 11:23:54;;;;;;;6.28;1.95;;;16.90;88.20;;;;;;5093463;28;20496;-61
2021/06/21 11:26:40;;;;;;;8.93;1.83;;;16.90;88.10;;;;;;5083420;28;20082;-61
2021/06/21 11:29:36;;;;;;;6.55;1.67;;;16.90;88.10;;;;;;5093467;28;21431;-61
2021/06/21 11:32:04;;;;;;;4.50;1.30;;;16.90;88.00;;;;;;5092521;28;20479;-61
2021/06/21 11:34:50;;;;;;;6.03;1.50;;;16.90;88.30;;;;;;5076402;28;20024;-61
2021/06/21 11:37:32;;;;;;;7.22;1.95;;;16.90;88.30;;;;;;5092713;28;20040;-61
2021/06/21 11:40:16;;;;;;;7.05;1.52;;;16.90;89.00;;;;;;5092286;28;20533;-61
2021/06/21 11:43:02;;;;;;;3.83;1.30;;;17.00;88.60;;;;;;5091822;28;20085;-61
2021/06/21 11:45:50;;;;;;;6.45;1.42;;;16.90;88.40;;;;;;5081586;28;20074;-61
2021/06/21 11:48:37;;;;;;;7.18;1.60;;;16.90;88.50;;;;;;5072276;28;20044;-61
2021/06/21 11:51:11;;;;;;;4.63;1.17;;;16.90;88.50;;;;;;5069688;28;20060;-61
2021/06/21 11:53:45;;;;;;;5.32;1.42;;;16.90;88.60;;;;;;5053263;28;20131;-61
2021/06/21 11:56:24;;;;;;;3.35;1.30;;;16.90;88.70;;;;;;5072870;28;20040;-61
2021/06/21 11:58:51;;;;;;;4.35;1.50;;;17.00;88.90;;;;;;5071495;28;20032;-61
2021/06/21 12:01:19;;;;;;;7.43;1.67;;;17.00;88.70;;;;;;5072281;28;20116;-61
2021/06/21 12:03:45;;;;;;;8.57;1.88;;;17.00;88.70;;;;;;5063195;28;20470;-61
2021/06/21 12:06:16;;;;;;;9.07;2.22;;;17.10;88.90;;;;;;5072804;28;20069;-61
2021/06/21 12:08:42;;;;;;;4.72;1.90;;;17.00;88.90;;;;;;5072876;28;20020;-61
2021/06/21 12:11:13;;;;;;;4.70;1.90;;;17.00;88.90;;;;;;5073689;28;20030;-61
2021/06/21 12:13:39;;;;;;;8.40;2.03;;;17.10;89.00;;;;;;5069003;28;20049;-61
2021/06/21 12:16:18;;;;;;;8.52;1.95;;;17.10;89.10;;;;;;5072840;28;20048;-60
2021/06/21 12:18:55;;;;;;;6.32;1.50;;;17.10;89.30;;;;;;5072599;28;20032;-61
2021/06/21 12:21:31;;;;;;;12.57;2.97;;;17.10;89.10;;;;;;5066564;28;20025;-61
2021/06/21 12:23:57;;;;;;;15.65;2.53;;;17.10;89.00;;;;;;5070027;28;20066;-61
2021/06/21 12:26:23;;;;;;;8.70;1.88;;;17.10;88.80;;;;;;5071756;28;20415;-61
2021/06/21 12:28:49;;;;;;;10.05;2.10;;;17.00;88.60;;;;;;5073091;28;20025;-61
2021/06/21 12:31:17;;;;;;;6.22;2.00;;;17.10;88.50;;;;;;5073576;28;20024;-61
2021/06/21 12:33:44;;;;;;;7.15;1.88;;;17.00;88.00;;;;;;5072286;28;20518;-74
2021/06/21 12:36:11;;;;;;;5.28;1.50;;;17.00;88.00;;;;;;5071249;28;20155;-60
2021/06/21 12:39:06;;;;;;;12.32;2.10;;;17.00;87.30;;;;;;5073415;28;20039;-60
2021/06/21 12:41:37;;;;;;;5.57;1.67;;;17.00;87.70;;;;;;5057438;28;20040;-60
2021/06/21 12:44:06;;;;;;;4.32;1.48;;;17.00;87.80;;;;;;5072536;28;20035;-60
2021/06/21 12:46:35;;;;;;;5.18;1.80;;;17.00;88.60;;;;;;5072486;28;20032;-60
2021/06/21 12:49:28;;;;;;;8.73;2.45;;;17.00;88.10;;;;;;5089587;28;20039;-60
2021/06/21 12:51:54;;;;;;;7.82;2.10;;;17.00;88.10;;;;;;5092746;28;20043;-60
2021/06/21 12:54:21;;;;;;;7.53;2.75;;;17.00;88.10;;;;;;5092291;28;20382;-60
2021/06/21 12:56:50;;;;;;;11.23;2.40;;;17.10;88.30;;;;;;5092127;28;20040;-61
2021/06/21 12:59:30;;;;;;;11.68;2.22;;;17.00;88.50;;;;;;5093383;28;20078;-60
2021/06/21 13:01:57;;;;;;;10.15;2.72;;;17.10;88.50;;;;;;5090785;28;20028;-60